createdAt,value
2022-12-25T00:00:27.279Z,17.70
2022-12-25T00:03:30.047Z,15.90
2022-12-25T00:06:32.539Z,14.23
2022-12-25T00:09:35.109Z,12.57
2022-12-25T00:12:37.448Z,14.00
2022-12-25T00:15:41.860Z,14.38
2022-12-25T00:18:45.172Z,13.13
2022-12-25T00:21:48.343Z,12.43
2022-12-25T00:24:51.033Z,12.73
2022-12-25T00:27:53.803Z,13.35
2022-12-25T00:30:56.159Z,17.52
2022-12-25T00:33:58.848Z,15.23
2022-12-25T00:37:01.224Z,17.00
2022-12-25T00:40:04.162Z,14.63
2022-12-25T00:43:06.424Z,16.52
2022-12-25T00:46:11.672Z,14.90
2022-12-25T00:49:14.200Z,15.90
2022-12-25T00:52:16.799Z,13.33
2022-12-25T00:55:19.166Z,15.80
2022-12-25T00:58:23.018Z,15.00
2022-12-25T01:01:25.460Z,12.73
2022-12-25T01:04:28.179Z,14.13
2022-12-25T01:07:30.523Z,13.17
2022-12-25T01:10:33.222Z,13.13
2022-12-25T01:13:36.787Z,10.80
2022-12-25T01:16:39.553Z,12.13
2022-12-25T01:19:41.965Z,11.82
2022-12-25T01:22:45.353Z,12.67
2022-12-25T01:25:47.910Z,11.80
2022-12-25T01:28:51.116Z,9.75
2022-12-25T01:31:53.523Z,13.10
2022-12-25T01:34:56.605Z,11.88
2022-12-25T01:37:58.998Z,13.03
2022-12-25T01:41:01.639Z,10.98
2022-12-25T01:44:08.309Z,10.43
2022-12-25T01:47:11.145Z,12.50
2022-12-25T01:50:13.495Z,12.98
2022-12-25T01:53:16.280Z,12.67
2022-12-25T01:56:19.088Z,13.88
2022-12-25T01:59:23.657Z,12.98
2022-12-25T02:02:27.803Z,12.68
2022-12-25T02:05:33.219Z,15.00
2022-12-25T02:08:35.692Z,11.63
2022-12-25T02:11:56.484Z,14.32
2022-12-25T02:15:05.719Z,17.87
2022-12-25T02:18:26.963Z,15.02
2022-12-25T02:21:47.361Z,14.15
2022-12-25T02:25:12.169Z,14.13
2022-12-25T02:28:30.202Z,12.13
2022-12-25T02:31:49.809Z,13.02
2022-12-25T02:35:01.147Z,13.13
2022-12-25T02:38:11.381Z,15.48
2022-12-25T02:41:16.882Z,13.33
2022-12-25T02:44:41.488Z,12.57
2022-12-25T02:48:02.287Z,12.60
2022-12-25T02:51:28.319Z,13.65
2022-12-25T02:54:54.696Z,13.10
2022-12-25T02:58:21.079Z,13.53
2022-12-25T03:01:47.179Z,14.52
2022-12-25T03:05:11.480Z,14.05
2022-12-25T03:08:20.609Z,11.35
2022-12-25T03:11:32.459Z,13.48
2022-12-25T03:14:53.488Z,13.33
2022-12-25T03:17:59.036Z,10.38
2022-12-25T03:21:20.111Z,14.63
2022-12-25T03:24:41.571Z,11.68
2022-12-25T03:27:46.688Z,15.60
2022-12-25T03:31:12.702Z,14.83
2022-12-25T03:35:05.894Z,10.43
2022-12-25T03:38:36.992Z,14.55
2022-12-25T03:42:05.385Z,11.57
2022-12-25T03:45:40.803Z,13.57
2022-12-25T03:49:08.853Z,12.00
2022-12-25T03:52:35.100Z,14.00
2022-12-25T03:55:59.965Z,12.23
2022-12-25T03:59:24.074Z,13.23
2022-12-25T04:02:45.499Z,11.57
2022-12-25T04:06:06.905Z,11.57
2022-12-25T04:09:27.504Z,15.20
2022-12-25T04:12:48.809Z,12.52
2022-12-25T04:16:13.118Z,10.30
2022-12-25T04:19:34.093Z,12.27
2022-12-25T04:22:54.979Z,10.47
2022-12-25T04:26:17.534Z,11.30
2022-12-25T04:29:38.667Z,13.23
2022-12-25T04:33:00.248Z,11.90
2022-12-25T04:36:14.718Z,14.52
2022-12-25T04:39:17.265Z,11.13
2022-12-25T04:42:19.631Z,13.00
2022-12-25T04:45:22.233Z,10.55
2022-12-25T04:48:25.659Z,10.40
2022-12-25T04:51:28.350Z,13.07
2022-12-25T04:54:30.633Z,12.70
2022-12-25T04:57:33.499Z,10.27
2022-12-25T05:00:36.292Z,11.27
2022-12-25T05:03:39.721Z,12.95
2022-12-25T05:06:42.165Z,12.80
2022-12-25T05:09:44.782Z,11.50
2022-12-25T05:12:47.228Z,14.32
2022-12-25T05:15:50.168Z,11.98
2022-12-25T05:18:52.622Z,12.85
2022-12-25T05:21:55.340Z,11.65
2022-12-25T05:24:57.655Z,12.73
2022-12-25T05:28:00.304Z,11.63
2022-12-25T05:31:03.152Z,17.80
2022-12-25T05:34:05.811Z,12.65
2022-12-25T05:37:08.252Z,12.75
2022-12-25T05:40:11.414Z,15.23
2022-12-25T05:43:13.812Z,14.63
2022-12-25T05:46:16.682Z,14.73
2022-12-25T05:49:19.097Z,16.08
2022-12-25T05:52:21.704Z,14.90
2022-12-25T05:55:24.026Z,15.77
2022-12-25T05:58:26.644Z,16.73
2022-12-25T06:01:29.375Z,21.92
2022-12-25T06:04:32.151Z,16.65
2022-12-25T06:07:34.539Z,15.05
2022-12-25T06:10:37.191Z,18.70
2022-12-25T06:13:40.113Z,16.75
2022-12-25T06:16:42.904Z,14.18
2022-12-25T06:19:45.351Z,18.25
2022-12-25T06:22:47.932Z,18.02
2022-12-25T06:25:50.272Z,13.90
2022-12-25T06:28:53.210Z,17.42
2022-12-25T06:31:57.342Z,17.30
2022-12-25T06:35:00.285Z,18.30
2022-12-25T06:38:02.689Z,15.73
2022-12-25T06:41:10.978Z,13.10
2022-12-25T06:44:13.997Z,17.55
2022-12-25T06:47:17.153Z,18.02
2022-12-25T06:50:19.541Z,22.83
2022-12-25T06:53:22.142Z,19.52
2022-12-25T06:56:27.685Z,18.30
2022-12-25T06:59:30.277Z,20.83
2022-12-25T07:02:33.602Z,14.80
2022-12-25T07:05:36.261Z,18.27
2022-12-25T07:08:38.796Z,19.15
2022-12-25T07:11:42.417Z,18.33
2022-12-25T07:14:48.696Z,19.20
2022-12-25T07:17:51.321Z,16.27
2022-12-25T07:20:55.772Z,15.70
2022-12-25T07:23:58.424Z,17.58
2022-12-25T07:27:00.818Z,16.33
2022-12-25T07:30:04.009Z,16.12
2022-12-25T07:33:06.346Z,16.33
2022-12-25T07:36:12.602Z,14.82
2022-12-25T07:39:16.363Z,13.18
2022-12-25T07:42:24.813Z,14.47
2022-12-25T07:45:29.875Z,20.42
2022-12-25T07:48:32.937Z,15.65
2022-12-25T07:51:35.292Z,16.90
2022-12-25T07:54:37.885Z,16.70
2022-12-25T07:57:40.277Z,14.90
2022-12-25T08:00:42.915Z,17.58
2022-12-25T08:03:56.385Z,14.27
2022-12-25T08:06:58.730Z,13.93
2022-12-25T08:10:02.039Z,15.63
2022-12-25T08:13:08.964Z,20.27
2022-12-25T08:16:15.284Z,13.18
2022-12-25T08:19:17.835Z,15.20
2022-12-25T08:22:20.584Z,13.00
2022-12-25T08:25:22.939Z,13.55
2022-12-25T08:28:25.553Z,11.23
2022-12-25T08:31:29.394Z,14.50
2022-12-25T08:34:32.068Z,15.63
2022-12-25T08:37:34.530Z,10.05
2022-12-25T08:40:37.161Z,12.57
2022-12-25T08:43:39.571Z,11.97
2022-12-25T08:46:42.680Z,16.45
2022-12-25T08:49:45.072Z,15.77
2022-12-25T08:52:47.861Z,12.32
2022-12-25T08:55:57.561Z,13.60
2022-12-25T08:59:00.260Z,14.20
2022-12-25T09:02:02.718Z,15.10
2022-12-25T09:05:06.041Z,14.63
2022-12-25T09:08:08.781Z,10.35
2022-12-25T09:11:13.956Z,12.90
2022-12-25T09:14:16.269Z,13.83
2022-12-25T09:17:19.636Z,10.82
2022-12-25T09:20:22.042Z,16.83
2022-12-25T09:23:24.751Z,14.05
2022-12-25T09:26:27.329Z,13.48
2022-12-25T09:29:29.992Z,15.00
2022-12-25T09:32:32.367Z,12.60
2022-12-25T09:35:35.179Z,13.50
2022-12-25T09:38:37.850Z,13.75
2022-12-25T09:41:58.387Z,14.32
2022-12-25T09:45:05.819Z,15.27
2022-12-25T09:48:13.912Z,18.35
2022-12-25T09:51:17.731Z,12.57
2022-12-25T09:54:39.793Z,14.00
2022-12-25T09:57:42.160Z,14.60
2022-12-25T10:00:56.557Z,12.83
2022-12-25T10:04:05.168Z,12.50
2022-12-25T10:07:16.572Z,13.43
2022-12-25T10:10:31.713Z,13.27
2022-12-25T10:14:05.917Z,13.80
2022-12-25T10:17:18.157Z,16.10
2022-12-25T10:20:29.243Z,14.63
2022-12-25T10:23:40.865Z,12.95
2022-12-25T10:26:44.803Z,18.75
2022-12-25T10:29:53.382Z,14.90
2022-12-25T10:32:58.199Z,21.33
2022-12-25T10:36:00.951Z,18.85
2022-12-25T10:39:03.737Z,20.37
2022-12-25T10:42:35.978Z,21.05
2022-12-25T10:45:49.543Z,20.45
2022-12-25T10:48:56.561Z,17.70
2022-12-25T10:51:59.026Z,23.12
2022-12-25T10:55:11.769Z,22.55
2022-12-25T10:58:19.888Z,15.90
2022-12-25T11:01:28.219Z,16.27
2022-12-25T11:04:35.199Z,13.20
2022-12-25T11:07:51.254Z,16.12
2022-12-25T11:11:00.040Z,23.42
2022-12-25T11:14:03.226Z,14.48
2022-12-25T11:17:09.969Z,16.92
2022-12-25T11:20:19.333Z,14.67
2022-12-25T11:23:24.221Z,14.95
2022-12-25T11:26:31.875Z,11.70
2022-12-25T11:29:47.433Z,12.43
2022-12-25T11:32:56.126Z,14.65
2022-12-25T11:36:04.330Z,15.83
2022-12-25T11:39:27.468Z,11.65
2022-12-25T11:42:45.327Z,15.52
2022-12-25T11:45:54.886Z,20.48
2022-12-25T11:49:04.880Z,19.20
2022-12-25T11:52:12.810Z,18.57
2022-12-25T11:55:55.610Z,17.27
2022-12-25T11:59:06.379Z,15.90
2022-12-25T12:02:32.924Z,18.60
2022-12-25T12:05:45.334Z,16.92
2022-12-25T12:08:53.051Z,18.80
2022-12-25T12:12:07.592Z,14.23
2022-12-25T12:15:30.270Z,11.10
2022-12-25T12:18:33.938Z,8.55
2022-12-25T12:21:36.444Z,17.52
2022-12-25T12:24:43.192Z,9.77
2022-12-25T12:27:45.868Z,9.75
2022-12-25T12:31:07.678Z,9.75
2022-12-25T12:34:31.551Z,5.55
2022-12-25T12:37:39.199Z,7.57
2022-12-25T12:40:54.283Z,7.50
2022-12-25T12:44:03.534Z,6.87
2022-12-25T12:47:05.909Z,11.82
2022-12-25T12:50:26.215Z,14.55
2022-12-25T12:53:32.135Z,12.88
2022-12-25T12:56:34.819Z,13.53
2022-12-25T12:59:40.777Z,14.77
2022-12-25T13:03:07.673Z,12.65
2022-12-25T13:06:30.584Z,12.30
2022-12-25T13:10:02.631Z,10.32
2022-12-25T13:13:30.309Z,15.03
2022-12-25T13:16:41.455Z,13.90
2022-12-25T13:19:44.996Z,14.27
2022-12-25T13:22:52.567Z,12.82
2022-12-25T13:25:58.175Z,12.85
2022-12-25T13:29:01.993Z,13.70
2022-12-25T13:32:15.350Z,13.00
2022-12-25T13:35:21.175Z,13.95
2022-12-25T13:38:25.864Z,9.30
2022-12-25T13:41:59.131Z,11.45
2022-12-25T13:45:24.126Z,10.23
2022-12-25T13:48:26.931Z,11.52
2022-12-25T13:51:29.284Z,10.55
2022-12-25T13:54:31.943Z,12.00
2022-12-25T13:57:38.468Z,11.27
2022-12-25T14:00:49.884Z,10.30
2022-12-25T14:03:54.687Z,9.15
2022-12-25T14:07:07.924Z,12.18
2022-12-25T14:10:13.304Z,11.60
2022-12-25T14:13:16.854Z,9.77
2022-12-25T14:16:21.684Z,10.67
2022-12-25T14:19:32.421Z,11.35
2022-12-25T14:22:36.030Z,13.80
2022-12-25T14:25:43.980Z,15.50
2022-12-25T14:28:49.090Z,11.80
2022-12-25T14:31:52.547Z,15.57
2022-12-25T14:35:03.619Z,11.48
2022-12-25T14:38:06.373Z,12.88
2022-12-25T14:41:33.531Z,15.48
2022-12-25T14:44:42.379Z,12.20
2022-12-25T14:47:57.637Z,16.70
2022-12-25T14:51:17.302Z,18.77
2022-12-25T14:54:23.176Z,15.85
2022-12-25T14:57:37.052Z,17.35
2022-12-25T15:00:40.192Z,18.00
2022-12-25T15:03:43.742Z,15.60
2022-12-25T15:06:55.545Z,16.12
2022-12-25T15:10:26.994Z,19.48
2022-12-25T15:13:20.942Z,18.62
2022-12-25T15:16:29.712Z,27.08
2022-12-25T15:19:38.241Z,20.17
2022-12-25T15:23:17.871Z,23.15
2022-12-25T15:26:03.964Z,23.80
2022-12-25T15:29:07.554Z,25.92
2022-12-25T15:32:19.056Z,21.30
2022-12-25T15:35:22.233Z,21.93
2022-12-25T15:38:24.896Z,27.90
2022-12-25T15:41:53.751Z,26.95
2022-12-25T15:44:56.678Z,27.70
2022-12-25T15:47:59.206Z,21.80
2022-12-25T15:51:01.796Z,24.67
2022-12-25T15:54:04.601Z,24.35
2022-12-25T15:57:17.000Z,25.05
2022-12-25T16:00:22.777Z,23.62
2022-12-25T16:03:25.510Z,29.48
2022-12-25T16:06:27.891Z,23.67
2022-12-25T16:09:30.543Z,23.77
2022-12-25T16:12:32.920Z,25.37
2022-12-25T16:15:35.664Z,27.27
2022-12-25T16:18:43.363Z,25.62
2022-12-25T16:21:50.144Z,25.00
2022-12-25T16:24:53.106Z,26.40
2022-12-25T16:27:55.706Z,25.70
2022-12-25T16:30:58.280Z,20.02
2022-12-25T16:34:01.535Z,23.38
2022-12-25T16:37:04.662Z,24.57
2022-12-25T16:40:09.565Z,20.48
2022-12-25T16:43:11.905Z,20.65
2022-12-25T16:46:17.974Z,25.23
2022-12-25T16:49:20.427Z,19.48
2022-12-25T16:52:23.176Z,17.90
2022-12-25T16:55:29.873Z,20.02
2022-12-25T16:58:33.108Z,21.35
2022-12-25T17:01:35.638Z,20.37
2022-12-25T17:04:39.380Z,19.98
2022-12-25T17:07:43.006Z,22.00
2022-12-25T17:10:45.583Z,23.58
2022-12-25T17:13:48.517Z,23.17
2022-12-25T17:16:51.417Z,17.17
2022-12-25T17:19:53.808Z,19.27
2022-12-25T17:22:57.662Z,21.37
2022-12-25T17:26:01.543Z,23.27
2022-12-25T17:29:04.317Z,24.02
2022-12-25T17:32:07.925Z,22.25
2022-12-25T17:35:10.588Z,22.70
2022-12-25T17:38:13.155Z,24.63
2022-12-25T17:41:17.713Z,19.00
2022-12-25T17:44:23.114Z,19.20
2022-12-25T17:47:26.278Z,25.40
2022-12-25T17:50:28.583Z,22.13
2022-12-25T17:53:31.881Z,22.93
2022-12-25T17:56:34.376Z,28.17
2022-12-25T17:59:37.034Z,26.37
2022-12-25T18:02:40.259Z,25.33
2022-12-25T18:05:43.110Z,25.58
2022-12-25T18:08:46.595Z,25.37
2022-12-25T18:11:49.228Z,22.45
2022-12-25T18:14:51.697Z,21.58
2022-12-25T18:17:54.503Z,22.80
2022-12-25T18:20:56.886Z,23.02
2022-12-25T18:23:59.671Z,26.77
2022-12-25T18:27:02.000Z,28.48
2022-12-25T18:30:05.188Z,25.75
2022-12-25T18:33:07.917Z,24.92
2022-12-25T18:36:13.207Z,31.00
2022-12-25T18:39:15.649Z,27.03
2022-12-25T18:42:37.074Z,29.92
2022-12-25T18:45:40.405Z,28.12
2022-12-25T18:48:44.320Z,27.73
2022-12-25T18:51:48.828Z,30.12
2022-12-25T18:54:51.535Z,25.13
2022-12-25T18:57:54.400Z,28.12
2022-12-25T19:00:57.116Z,28.30
2022-12-25T19:04:05.051Z,25.85
2022-12-25T19:07:08.454Z,26.50
2022-12-25T19:10:11.053Z,31.13
2022-12-25T19:13:13.749Z,23.65
2022-12-25T19:16:16.554Z,25.27
2022-12-25T19:19:20.758Z,27.30
2022-12-25T19:22:23.248Z,31.40
2022-12-25T19:25:26.331Z,28.07
2022-12-25T19:28:28.661Z,23.05
2022-12-25T19:31:31.338Z,23.23
2022-12-25T19:34:33.791Z,22.02
2022-12-25T19:37:36.530Z,21.83
2022-12-25T19:40:40.502Z,25.30
2022-12-25T19:43:47.502Z,23.73
2022-12-25T19:46:50.066Z,24.63
2022-12-25T19:49:53.659Z,20.17
2022-12-25T19:52:57.331Z,23.80
2022-12-25T19:56:02.493Z,24.83
2022-12-25T19:59:04.896Z,22.90
2022-12-25T20:02:07.666Z,28.23
2022-12-25T20:05:10.471Z,29.30
2022-12-25T20:08:12.786Z,26.20
2022-12-25T20:11:16.891Z,28.17
2022-12-25T20:14:19.722Z,24.17
2022-12-25T20:17:22.443Z,25.02
2022-12-25T20:20:24.793Z,25.60
2022-12-25T20:23:28.112Z,23.52
2022-12-25T20:26:31.741Z,23.03
2022-12-25T20:29:34.441Z,25.77
2022-12-25T20:32:36.778Z,25.92
2022-12-25T20:35:45.107Z,25.58
2022-12-25T20:38:47.528Z,24.05
2022-12-25T20:41:50.121Z,24.07
2022-12-25T20:44:52.468Z,28.77
2022-12-25T20:47:55.478Z,25.85
2022-12-25T20:51:08.258Z,24.92
2022-12-25T20:54:12.733Z,23.73
2022-12-25T20:57:15.090Z,23.63
2022-12-25T21:00:17.833Z,23.35
2022-12-25T21:03:20.501Z,22.55
2022-12-25T21:06:23.255Z,24.00
2022-12-25T21:09:26.369Z,24.85
2022-12-25T21:12:29.305Z,24.80
2022-12-25T21:15:31.592Z,21.60
2022-12-25T21:18:34.347Z,18.27
2022-12-25T21:21:39.165Z,19.95
2022-12-25T21:24:41.835Z,21.08
2022-12-25T21:27:44.197Z,17.27
2022-12-25T21:30:46.891Z,17.45
2022-12-25T21:33:52.846Z,19.17
2022-12-25T21:36:55.663Z,18.37
2022-12-25T21:39:58.201Z,17.90
2022-12-25T21:43:01.285Z,19.10
2022-12-25T21:46:22.027Z,17.73
2022-12-25T21:49:43.351Z,17.45
2022-12-25T21:52:45.752Z,15.48
2022-12-25T21:56:04.556Z,19.58
2022-12-25T21:59:08.948Z,17.63
2022-12-25T22:02:12.228Z,17.17
2022-12-25T22:05:35.584Z,19.00
2022-12-25T22:08:37.950Z,21.60
2022-12-25T22:11:59.286Z,16.05
2022-12-25T22:15:06.136Z,18.80
2022-12-25T22:18:27.328Z,20.20
2022-12-25T22:21:29.660Z,19.62
2022-12-25T22:24:32.458Z,18.05
2022-12-25T22:27:38.018Z,15.77
2022-12-25T22:30:44.396Z,19.47
2022-12-25T22:33:46.843Z,16.92
2022-12-25T22:36:50.222Z,19.33
2022-12-25T22:39:52.630Z,18.48
2022-12-25T22:42:55.967Z,20.23
2022-12-25T22:46:01.975Z,18.20
2022-12-25T22:49:04.765Z,17.75
2022-12-25T22:52:09.435Z,19.55
2022-12-25T22:55:12.516Z,19.00
2022-12-25T22:58:15.418Z,20.42
2022-12-25T23:01:18.092Z,18.13
2022-12-25T23:04:23.927Z,19.55
2022-12-25T23:07:26.607Z,18.10
2022-12-25T23:10:29.095Z,21.90
2022-12-25T23:13:50.281Z,20.90
2022-12-25T23:16:52.615Z,21.90
2022-12-25T23:20:14.858Z,21.87
2022-12-25T23:23:36.579Z,15.05
2022-12-25T23:26:39.137Z,17.33
2022-12-25T23:29:41.478Z,19.02
2022-12-25T23:32:45.332Z,19.47
2022-12-25T23:35:47.653Z,17.92
2022-12-25T23:38:50.416Z,20.83
2022-12-25T23:41:52.894Z,20.02
2022-12-25T23:44:55.713Z,18.45
2022-12-25T23:47:58.018Z,24.87
2022-12-25T23:51:05.629Z,21.33
2022-12-25T23:54:08.023Z,20.85
2022-12-25T23:57:10.685Z,20.60
